Time;durP1;ratioP1;P1;durP2;ratioP2;P2;SDS_P1;SDS_P2;PMS_P1;PMS_P2;Temp;Humidity;BMP_temperature;BMP_pressure;BME280_temperature;BME280_humidity;BME280_pressure;Samples;Min_cycle;Max_cycle;Signal;HPM_P1;HPM_P2
2021/10/13 00:00:09;;;;;;;9.82;6.03;;;10.00;99.90;;;;;;5054746;28;20302;-74
2021/10/13 00:02:37;;;;;;;9.85;5.60;;;10.10;99.90;;;;;;5055546;28;20200;-74
2021/10/13 00:05:06;;;;;;;9.32;6.47;;;10.10;99.90;;;;;;5055513;28;20203;-74
2021/10/13 00:07:33;;;;;;;8.68;6.15;;;10.10;99.90;;;;;;5055626;28;20593;-74
2021/10/13 00:10:00;;;;;;;8.05;5.80;;;10.20;99.90;;;;;;5054682;28;20733;-74
2021/10/13 00:12:31;;;;;;;9.32;5.47;;;10.20;99.90;;;;;;5054723;28;20697;-74
2021/10/13 00:14:58;;;;;;;8.85;6.03;;;10.10;99.90;;;;;;5055602;28;20610;-74
2021/10/13 00:17:25;;;;;;;8.35;5.85;;;10.10;99.90;;;;;;5054269;28;20310;-76
2021/10/13 00:19:52;;;;;;;9.43;6.10;;;10.00;99.90;;;;;;5053551;28;20289;-76
2021/10/13 00:22:20;;;;;;;9.18;6.18;;;9.90;99.90;;;;;;5053684;28;20199;-75
2021/10/13 00:24:47;;;;;;;9.30;5.88;;;9.90;99.90;;;;;;5053386;28;20203;-77
2021/10/13 00:27:14;;;;;;;9.70;5.88;;;9.90;99.90;;;;;;5055913;28;20235;-75
2021/10/13 00:29:40;;;;;;;8.63;5.70;;;9.90;99.90;;;;;;5055895;28;20325;-75
2021/10/13 00:32:07;;;;;;;7.95;4.90;;;9.90;99.90;;;;;;5055921;28;20223;-75
2021/10/13 00:34:35;;;;;;;10.43;6.80;;;10.00;99.90;;;;;;5056748;28;20306;-76
2021/10/13 00:37:02;;;;;;;9.45;6.63;;;10.10;99.90;;;;;;5056523;28;20250;-76
2021/10/13 00:39:30;;;;;;;10.63;6.30;;;10.10;99.90;;;;;;5057624;28;20203;-75
2021/10/13 00:41:58;;;;;;;8.05;5.53;;;10.20;99.90;;;;;;5057111;28;20203;-75
2021/10/13 00:44:25;;;;;;;10.00;6.50;;;10.00;99.90;;;;;;5056689;28;20695;-75
2021/10/13 00:46:52;;;;;;;10.18;6.57;;;10.10;99.90;;;;;;5056467;28;20300;-75
2021/10/13 00:49:18;;;;;;;8.98;6.10;;;10.00;99.90;;;;;;5055399;28;20297;-76
2021/10/13 00:51:45;;;;;;;9.68;6.72;;;9.90;99.90;;;;;;5054790;28;20714;-75
2021/10/13 00:54:12;;;;;;;9.25;6.43;;;9.80;99.90;;;;;;5056888;28;20207;-75
2021/10/13 00:56:40;;;;;;;11.38;6.70;;;9.90;99.90;;;;;;5055239;28;20298;-76
2021/10/13 00:59:07;;;;;;;10.65;6.40;;;9.60;99.90;;;;;;5054675;28;20203;-76
2021/10/13 01:01:41;;;;;;;9.60;6.15;;;9.60;99.90;;;;;;5055561;28;20203;-75
2021/10/13 01:04:24;;;;;;;8.35;6.20;;;9.70;99.90;;;;;;5055124;28;20575;-76
2021/10/13 01:06:59;;;;;;;10.40;5.75;;;9.60;99.90;;;;;;5054993;28;20660;-75
2021/10/13 01:09:30;;;;;;;10.95;6.40;;;9.70;99.90;;;;;;5055139;28;20187;-76
2021/10/13 01:12:13;;;;;;;12.98;6.03;;;9.70;99.90;;;;;;5054595;28;20234;-75
2021/10/13 01:14:47;;;;;;;10.48;6.97;;;9.70;99.90;;;;;;5055255;28;20209;-75
2021/10/13 01:17:23;;;;;;;10.35;6.75;;;9.40;99.90;;;;;;5055108;28;20227;-75
2021/10/13 01:20:07;;;;;;;9.40;6.45;;;9.40;99.90;;;;;;5055541;28;20197;-76
2021/10/13 01:23:05;;;;;;;10.65;5.88;;;9.40;99.90;;;;;;5055025;28;20218;-75
2021/10/13 01:25:45;;;;;;;11.55;6.07;;;9.40;99.90;;;;;;5054875;28;20207;-75
2021/10/13 01:28:14;;;;;;;8.80;6.05;;;9.40;99.90;;;;;;5056919;28;20313;-75
2021/10/13 01:30:47;;;;;;;10.20;5.32;;;9.50;99.90;;;;;;5056590;28;20204;-75
2021/10/13 01:33:24;;;;;;;9.85;5.60;;;9.50;99.90;;;;;;5054433;28;20233;-74
2021/10/13 01:35:54;;;;;;;7.63;5.15;;;9.50;99.90;;;;;;5054935;28;20199;-75
2021/10/13 01:38:24;;;;;;;9.25;5.72;;;9.60;99.90;;;;;;5054416;28;20630;-75
2021/10/13 01:40:54;;;;;;;9.32;5.03;;;9.70;99.90;;;;;;5054726;28;20203;-75
2021/10/13 01:43:24;;;;;;;7.22;4.47;;;9.70;99.90;;;;;;5054338;28;20196;-74
2021/10/13 01:45:52;;;;;;;9.30;6.07;;;9.80;99.90;;;;;;5054625;28;20204;-75
2021/10/13 01:48:20;;;;;;;16.15;6.28;;;9.80;99.90;;;;;;5054143;28;20229;-75
2021/10/13 01:50:50;;;;;;;10.00;6.25;;;9.50;99.90;;;;;;5054170;28;20203;-75
2021/10/13 01:53:19;;;;;;;9.35;5.90;;;9.30;99.90;;;;;;5053737;28;20230;-74
2021/10/13 01:55:48;;;;;;;9.73;6.22;;;9.30;99.90;;;;;;5054817;28;20290;-74
2021/10/13 01:58:17;;;;;;;9.68;5.38;;;9.40;99.90;;;;;;5054854;28;20224;-75
2021/10/13 02:00:49;;;;;;;9.80;6.20;;;9.40;99.90;;;;;;5055151;28;20233;-75
2021/10/13 02:03:19;;;;;;;9.45;6.10;;;9.60;99.90;;;;;;5054869;28;20199;-75
2021/10/13 02:05:46;;;;;;;10.95;6.10;;;9.70;99.90;;;;;;5055311;28;20200;-76
2021/10/13 02:08:15;;;;;;;8.65;4.93;;;9.70;99.90;;;;;;5054558;28;20233;-76
2021/10/13 02:10:47;;;;;;;10.75;6.18;;;9.70;99.90;;;;;;5056469;28;20298;-75
2021/10/13 02:13:17;;;;;;;9.82;5.70;;;9.80;99.90;;;;;;5058503;28;20235;-75
2021/10/13 02:15:47;;;;;;;8.48;5.55;;;9.80;99.90;;;;;;5058007;28;20294;-75
2021/10/13 02:18:17;;;;;;;8.75;6.15;;;9.60;99.90;;;;;;5058586;28;20231;-75
2021/10/13 02:20:44;;;;;;;11.07;5.57;;;9.40;99.90;;;;;;5059509;28;20200;-75
2021/10/13 02:23:14;;;;;;;8.40;5.93;;;9.40;99.90;;;;;;5059338;28;20259;-74
2021/10/13 02:25:47;;;;;;;10.18;6.00;;;9.50;99.90;;;;;;5059314;28;20219;-75
2021/10/13 02:28:18;;;;;;;7.93;5.22;;;9.50;99.90;;;;;;5060197;28;20224;-75
2021/10/13 02:30:47;;;;;;;7.53;5.40;;;9.70;99.90;;;;;;5059409;28;20657;-76
2021/10/13 02:33:14;;;;;;;8.75;5.57;;;9.70;99.90;;;;;;5058494;28;20265;-74
2021/10/13 02:35:41;;;;;;;7.55;4.88;;;9.50;99.90;;;;;;5060042;28;20678;-75
2021/10/13 02:38:07;;;;;;;8.55;5.00;;;9.50;99.90;;;;;;5058453;28;20223;-75
2021/10/13 02:40:34;;;;;;;8.32;4.60;;;9.50;99.90;;;;;;5058682;28;20234;-75
2021/10/13 02:43:01;;;;;;;6.95;4.80;;;9.60;99.90;;;;;;5058078;28;20204;-74
2021/10/13 02:45:31;;;;;;;6.35;4.30;;;9.50;99.90;;;;;;5058189;28;20728;-75
2021/10/13 02:48:03;;;;;;;9.02;5.57;;;9.40;99.90;;;;;;5058052;28;20219;-75
2021/10/13 02:50:37;;;;;;;10.23;5.22;;;9.30;99.90;;;;;;5058463;28;20184;-75
2021/10/13 02:53:09;;;;;;;8.07;4.88;;;9.30;99.90;;;;;;5057836;28;20319;-74
2021/10/13 02:55:39;;;;;;;7.90;5.18;;;9.40;99.90;;;;;;5058665;28;20214;-75
2021/10/13 02:58:16;;;;;;;11.00;5.20;;;9.30;99.90;;;;;;5058904;28;20223;-75
2021/10/13 03:00:47;;;;;;;9.95;5.30;;;9.30;99.90;;;;;;5057745;28;20277;-75
2021/10/13 03:03:21;;;;;;;7.93;5.63;;;9.40;99.90;;;;;;5058053;28;20204;-74
2021/10/13 03:05:50;;;;;;;6.80;5.07;;;9.50;99.90;;;;;;5058176;28;20199;-75
2021/10/13 03:08:21;;;;;;;9.00;5.50;;;9.60;99.90;;;;;;5058122;28;20235;-75
2021/10/13 03:10:49;;;;;;;9.88;6.20;;;9.70;99.90;;;;;;5056803;28;20203;-75
2021/10/13 03:13:19;;;;;;;10.98;6.00;;;9.60;99.90;;;;;;5057477;28;20220;-74
2021/10/13 03:15:46;;;;;;;11.57;6.97;;;9.60;99.90;;;;;;5058290;28;20203;-75
2021/10/13 03:18:15;;;;;;;9.35;5.68;;;9.60;99.90;;;;;;5057271;28;20227;-75
2021/10/13 03:20:44;;;;;;;9.50;6.38;;;9.60;99.90;;;;;;5056020;28;20199;-75
2021/10/13 03:23:13;;;;;;;8.10;4.80;;;9.50;99.90;;;;;;5057173;28;20214;-75
2021/10/13 03:25:40;;;;;;;7.25;5.05;;;9.50;99.90;;;;;;5058108;28;20214;-75
2021/10/13 03:28:06;;;;;;;8.90;5.38;;;9.60;99.90;;;;;;5057506;28;20278;-75
2021/10/13 03:30:33;;;;;;;9.50;5.20;;;9.70;99.90;;;;;;5058054;28;20578;-76
2021/10/13 03:33:00;;;;;;;18.63;5.50;;;9.80;99.90;;;;;;5057044;28;20227;-74
2021/10/13 03:35:29;;;;;;;10.40;5.82;;;9.80;99.90;;;;;;5056848;28;20203;-75
2021/10/13 03:38:00;;;;;;;10.93;5.65;;;9.90;99.90;;;;;;5057254;28;20684;-75
2021/10/13 03:40:29;;;;;;;8.10;5.68;;;9.90;99.90;;;;;;5057161;28;20192;-75
2021/10/13 03:42:56;;;;;;;11.75;6.05;;;9.80;99.90;;;;;;5057471;28;20206;-74
2021/10/13 03:45:24;;;;;;;9.02;5.93;;;9.70;99.90;;;;;;5057028;28;20214;-74
2021/10/13 03:47:51;;;;;;;10.50;5.60;;;9.70;99.90;;;;;;5056949;28;20630;-75
2021/10/13 03:50:20;;;;;;;9.70;5.88;;;9.70;99.90;;;;;;5057308;28;20204;-75
2021/10/13 03:52:48;;;;;;;6.93;5.22;;;9.70;99.90;;;;;;5056396;28;20219;-74
2021/10/13 03:55:17;;;;;;;9.43;5.40;;;9.80;99.90;;;;;;5055926;28;20210;-75
2021/10/13 03:57:44;;;;;;;9.00;4.63;;;9.80;99.90;;;;;;5055624;28;20689;-75
2021/10/13 04:00:13;;;;;;;8.02;4.85;;;9.80;99.90;;;;;;5057038;28;20204;-75
2021/10/13 04:02:40;;;;;;;7.90;5.45;;;9.90;99.90;;;;;;5055555;28;20286;-74
2021/10/13 04:05:10;;;;;;;7.00;4.82;;;9.80;99.90;;;;;;5055546;28;20294;-75
2021/10/13 04:07:38;;;;;;;7.45;4.85;;;9.80;99.90;;;;;;5055679;28;20220;-75
2021/10/13 04:10:07;;;;;;;7.20;3.88;;;9.80;99.90;;;;;;5055299;28;20302;-74
2021/10/13 04:12:35;;;;;;;7.75;5.50;;;9.80;99.90;;;;;;5055109;28;20223;-74
2021/10/13 04:15:03;;;;;;;7.53;4.93;;;9.60;99.90;;;;;;5055871;28;20199;-75
2021/10/13 04:17:32;;;;;;;7.20;4.97;;;9.60;99.90;;;;;;5055652;28;20230;-75
2021/10/13 04:19:59;;;;;;;8.43;4.97;;;9.70;99.90;;;;;;5055239;28;20542;-75
2021/10/13 04:22:26;;;;;;;7.63;5.18;;;9.80;99.90;;;;;;5055186;28;20294;-74
2021/10/13 04:24:53;;;;;;;7.25;4.20;;;9.80;99.90;;;;;;5054915;28;20279;-75
2021/10/13 04:27:19;;;;;;;7.88;4.65;;;9.90;99.90;;;;;;5054977;28;20287;-75
2021/10/13 04:29:47;;;;;;;13.30;5.93;;;9.90;99.90;;;;;;5055760;28;20203;-75
2021/10/13 04:32:14;;;;;;;9.07;5.13;;;9.80;99.90;;;;;;5055126;28;20294;-75
2021/10/13 04:34:41;;;;;;;8.75;4.95;;;9.70;99.90;;;;;;5055496;28;20219;-75
2021/10/13 04:37:08;;;;;;;9.43;5.20;;;9.70;99.90;;;;;;5055336;28;20223;-75
2021/10/13 04:39:35;;;;;;;7.80;5.13;;;9.80;99.90;;;;;;5055850;28;20291;-75
2021/10/13 04:42:01;;;;;;;7.95;4.30;;;9.80;99.90;;;;;;5055128;28;20243;-75
2021/10/13 04:44:28;;;;;;;8.05;5.25;;;9.70;99.90;;;;;;5055325;28;20662;-75
2021/10/13 04:46:56;;;;;;;8.57;5.60;;;9.80;99.90;;;;;;5054968;28;20210;-75
2021/10/13 04:49:23;;;;;;;7.45;4.40;;;9.80;99.90;;;;;;5054652;28;20211;-75
2021/10/13 04:51:50;;;;;;;7.00;4.93;;;9.90;99.90;;;;;;5054446;28;20313;-74
2021/10/13 04:54:18;;;;;;;7.53;4.60;;;9.90;99.90;;;;;;5054379;28;20227;-75
2021/10/13 04:56:45;;;;;;;8.30;4.50;;;9.70;99.90;;;;;;5054692;28;20214;-75
2021/10/13 04:59:12;;;;;;;9.00;5.20;;;9.60;99.90;;;;;;5054727;28;20205;-75
2021/10/13 05:01:39;;;;;;;7.22;5.15;;;9.70;99.90;;;;;;5054848;28;20226;-74
2021/10/13 05:04:07;;;;;;;6.50;4.97;;;9.70;99.90;;;;;;5054667;28;20201;-75
2021/10/13 05:06:34;;;;;;;8.98;5.68;;;9.80;99.90;;;;;;5054628;28;20298;-75
2021/10/13 05:09:01;;;;;;;7.22;5.32;;;9.70;99.90;;;;;;5054510;28;20219;-75
2021/10/13 05:11:28;;;;;;;10.32;5.55;;;9.80;99.90;;;;;;5054223;28;20295;-75
2021/10/13 05:13:54;;;;;;;8.88;5.85;;;9.80;99.90;;;;;;5054560;28;20226;-75
2021/10/13 05:16:21;;;;;;;12.50;7.30;;;9.90;99.90;;;;;;5054124;28;20310;-75
2021/10/13 05:18:48;;;;;;;9.35;6.10;;;9.90;99.90;;;;;;5054596;28;20226;-75
2021/10/13 05:21:16;;;;;;;10.23;5.35;;;9.90;99.90;;;;;;5054833;28;20203;-74
2021/10/13 05:23:43;;;;;;;10.73;5.97;;;9.90;99.90;;;;;;5054735;28;20241;-75
2021/10/13 05:26:10;;;;;;;9.20;6.18;;;9.90;99.90;;;;;;5054478;28;20214;-75
2021/10/13 05:28:37;;;;;;;10.50;5.95;;;9.90;99.90;;;;;;5054804;28;20227;-76
2021/10/13 05:31:03;;;;;;;8.93;5.93;;;9.90;99.90;;;;;;5054543;28;20290;-75
2021/10/13 05:33:30;;;;;;;9.57;5.20;;;9.90;99.90;;;;;;5053857;28;20223;-76
2021/10/13 05:35:57;;;;;;;9.13;5.25;;;9.90;99.90;;;;;;5053789;28;20217;-75
2021/10/13 05:38:25;;;;;;;11.40;5.13;;;9.80;99.90;;;;;;5054182;28;20310;-75
2021/10/13 05:40:52;;;;;;;9.02;5.00;;;9.80;99.90;;;;;;5054208;28;20565;-76
2021/10/13 05:43:19;;;;;;;9.00;5.65;;;9.80;99.90;;;;;;5053825;28;20227;-75
2021/10/13 05:45:47;;;;;;;9.43;4.47;;;9.70;99.90;;;;;;5057945;28;20267;-75
2021/10/13 05:48:14;;;;;;;7.30;5.20;;;9.80;99.90;;;;;;5058513;28;20231;-76
2021/10/13 05:50:41;;;;;;;8.30;5.15;;;9.70;99.90;;;;;;5058205;28;20672;-76
2021/10/13 05:53:08;;;;;;;8.50;4.88;;;9.70;99.90;;;;;;5057990;28;20235;-75
2021/10/13 05:55:36;;;;;;;11.65;5.20;;;9.70;99.90;;;;;;5057914;28;20294;-75
2021/10/13 05:58:05;;;;;;;8.80;5.07;;;9.50;99.90;;;;;;5057791;28;20774;-75
2021/10/13 06:00:32;;;;;;;8.25;4.40;;;9.50;99.90;;;;;;5057926;28;20199;-75
2021/10/13 06:02:59;;;;;;;9.75;5.35;;;9.60;99.90;;;;;;5057526;28;20206;-75
2021/10/13 06:05:26;;;;;;;8.77;5.20;;;9.50;99.90;;;;;;5057577;28;20210;-75
2021/10/13 06:07:52;;;;;;;6.80;4.75;;;9.40;99.90;;;;;;5057583;28;20315;-75
2021/10/13 06:10:19;;;;;;;10.23;5.63;;;9.40;99.90;;;;;;5057510;28;20203;-75
2021/10/13 06:12:48;;;;;;;8.55;5.35;;;9.40;99.90;;;;;;5057523;28;20572;-75
2021/10/13 06:15:14;;;;;;;9.05;5.40;;;9.30;99.90;;;;;;5057380;28;20554;-75
2021/10/13 06:17:42;;;;;;;9.50;6.07;;;9.40;99.90;;;;;;5057685;28;20224;-75
2021/10/13 06:20:10;;;;;;;8.85;5.32;;;9.50;99.90;;;;;;5057570;28;20210;-75
2021/10/13 06:22:37;;;;;;;9.82;5.22;;;9.60;99.90;;;;;;5057021;28;20213;-75
2021/10/13 06:25:05;;;;;;;8.50;5.45;;;9.60;99.90;;;;;;5057449;28;20756;-76
2021/10/13 06:27:32;;;;;;;9.20;5.10;;;9.60;99.90;;;;;;5058359;28;20230;-75
2021/10/13 06:30:00;;;;;;;10.65;6.07;;;9.60;99.90;;;;;;5057900;28;20239;-75
2021/10/13 06:32:27;;;;;;;9.68;4.55;;;9.60;99.90;;;;;;5057960;28;20211;-74
2021/10/13 06:34:54;;;;;;;9.13;4.30;;;9.50;99.90;;;;;;5058089;28;20318;-75
2021/10/13 06:37:20;;;;;;;9.88;5.20;;;9.40;99.90;;;;;;5057373;28;20225;-75
2021/10/13 06:39:47;;;;;;;6.82;4.82;;;9.50;99.90;;;;;;5057542;28;20625;-75
2021/10/13 06:42:14;;;;;;;7.97;4.93;;;9.60;99.90;;;;;;5057365;28;20203;-75
2021/10/13 06:44:41;;;;;;;6.50;4.18;;;9.70;99.90;;;;;;5057246;28;20234;-75
2021/10/13 06:47:09;;;;;;;7.00;4.60;;;9.70;99.90;;;;;;5057213;28;20223;-75
2021/10/13 06:49:36;;;;;;;6.70;4.60;;;9.70;99.90;;;;;;5057106;28;20285;-75
2021/10/13 06:52:03;;;;;;;5.85;4.30;;;9.70;99.90;;;;;;5056358;28;20630;-74
2021/10/13 06:54:30;;;;;;;7.78;3.80;;;9.60;99.90;;;;;;5056613;28;20223;-75
2021/10/13 06:56:56;;;;;;;8.52;4.40;;;9.70;99.90;;;;;;5055639;28;20253;-75
2021/10/13 06:59:23;;;;;;;12.27;4.97;;;9.80;99.90;;;;;;5056491;28;20210;-75
2021/10/13 07:01:50;;;;;;;12.02;5.88;;;9.90;99.90;;;;;;5056433;28;20576;-75
2021/10/13 07:04:18;;;;;;;11.82;6.40;;;10.00;99.90;;;;;;5056945;28;20208;-75
2021/10/13 07:06:45;;;;;;;6.93;4.03;;;10.10;99.90;;;;;;5056652;28;20214;-75
2021/10/13 07:09:12;;;;;;;6.10;4.03;;;9.90;99.90;;;;;;5056711;28;20541;-75
2021/10/13 07:11:39;;;;;;;5.65;3.67;;;9.70;99.90;;;;;;5052438;28;20302;-73
2021/10/13 07:14:06;;;;;;;7.13;4.35;;;9.70;99.90;;;;;;5059085;28;20317;-74
2021/10/13 07:16:33;;;;;;;6.82;4.07;;;9.90;99.90;;;;;;5055310;28;20211;-78
2021/10/13 07:19:00;;;;;;;7.80;4.22;;;10.00;99.90;;;;;;5055729;28;20227;-77
2021/10/13 07:21:28;;;;;;;6.90;4.18;;;10.10;99.90;;;;;;5054800;28;20208;-76
2021/10/13 07:23:55;;;;;;;5.90;4.00;;;10.30;99.90;;;;;;5054945;28;20230;-77
2021/10/13 07:26:22;;;;;;;4.85;3.28;;;10.20;99.90;;;;;;5055690;28;20310;-77
2021/10/13 07:28:48;;;;;;;6.85;4.10;;;10.30;99.90;;;;;;5056154;28;20314;-77
2021/10/13 07:31:15;;;;;;;6.65;3.55;;;10.40;99.90;;;;;;5055372;28;20215;-76
2021/10/13 07:33:42;;;;;;;6.07;3.80;;;10.40;99.90;;;;;;5054907;28;20314;-76
2021/10/13 07:36:09;;;;;;;5.38;4.40;;;10.40;99.90;;;;;;5054923;28;20207;-76
2021/10/13 07:38:37;;;;;;;4.18;3.05;;;10.30;99.90;;;;;;5054910;28;20306;-76
2021/10/13 07:41:04;;;;;;;6.95;3.90;;;10.30;99.90;;;;;;5054802;28;20207;-76
2021/10/13 07:43:32;;;;;;;5.07;3.88;;;10.30;99.90;;;;;;5055164;28;20299;-76
2021/10/13 07:45:59;;;;;;;6.40;4.15;;;10.30;99.90;;;;;;5054851;28;20294;-76
2021/10/13 07:48:26;;;;;;;6.70;3.95;;;10.30;99.90;;;;;;5054661;28;20251;-76
2021/10/13 07:50:55;;;;;;;6.18;3.80;;;10.30;99.90;;;;;;5054512;28;20684;-75
2021/10/13 07:53:22;;;;;;;6.32;4.10;;;10.30;99.90;;;;;;5055037;28;20581;-75
2021/10/13 07:55:50;;;;;;;6.63;4.57;;;10.30;99.90;;;;;;5054848;28;20230;-74
2021/10/13 07:58:17;;;;;;;6.07;4.05;;;10.30;99.90;;;;;;5054736;28;20224;-75
2021/10/13 08:00:44;;;;;;;9.43;4.43;;;10.30;99.90;;;;;;5054970;28;20233;-75
2021/10/13 08:03:11;;;;;;;7.13;4.57;;;10.20;99.90;;;;;;5054607;28;20294;-75
2021/10/13 08:05:39;;;;;;;7.30;4.50;;;10.10;99.90;;;;;;5054863;28;20203;-75
2021/10/13 08:08:06;;;;;;;7.82;5.35;;;10.10;99.90;;;;;;5053752;28;20322;-75
2021/10/13 08:10:32;;;;;;;10.98;6.45;;;10.20;99.90;;;;;;5054891;28;20296;-75
2021/10/13 08:13:01;;;;;;;6.63;4.50;;;10.30;99.90;;;;;;5054676;28;20294;-75
2021/10/13 08:15:28;;;;;;;8.45;5.88;;;10.20;99.90;;;;;;5054489;28;20314;-75
2021/10/13 08:17:55;;;;;;;9.63;5.25;;;10.40;99.90;;;;;;5054327;28;20235;-75
2021/10/13 08:20:22;;;;;;;8.93;5.00;;;10.60;99.90;;;;;;5054661;28;20207;-75
2021/10/13 08:22:49;;;;;;;7.75;4.82;;;10.80;99.90;;;;;;5054435;28;20235;-74
2021/10/13 08:25:16;;;;;;;6.53;4.68;;;10.80;99.90;;;;;;5054139;28;20730;-75
2021/10/13 08:27:43;;;;;;;6.65;4.45;;;10.90;99.90;;;;;;5054237;28;20249;-75
2021/10/13 08:30:12;;;;;;;8.45;5.60;;;10.50;99.90;;;;;;5054420;28;20205;-75
2021/10/13 08:32:39;;;;;;;8.40;4.45;;;10.30;99.90;;;;;;5054255;28;20203;-75
2021/10/13 08:35:08;;;;;;;9.75;4.88;;;10.30;99.90;;;;;;5054066;28;20739;-75
2021/10/13 08:37:35;;;;;;;8.25;4.60;;;10.30;99.90;;;;;;5054111;28;20313;-75
2021/10/13 08:40:02;;;;;;;9.68;5.70;;;10.40;99.90;;;;;;5054324;28;20571;-75
2021/10/13 08:42:29;;;;;;;10.15;5.95;;;10.30;99.90;;;;;;5053810;28;20231;-74
2021/10/13 08:44:56;;;;;;;10.00;5.93;;;10.30;99.90;;;;;;5054174;28;20199;-75
2021/10/13 08:47:25;;;;;;;7.82;5.60;;;10.50;99.90;;;;;;5054006;28;20317;-75
2021/10/13 08:49:53;;;;;;;9.18;5.03;;;10.70;99.90;;;;;;5054084;28;20207;-75
2021/10/13 08:52:20;;;;;;;9.57;5.85;;;11.00;99.90;;;;;;5053598;28;20204;-75
2021/10/13 08:54:46;;;;;;;9.80;5.57;;;11.20;99.90;;;;;;5053613;28;20216;-75
2021/10/13 08:57:20;;;;;;;7.10;5.43;;;11.20;99.90;;;;;;5053823;28;20223;-75
2021/10/13 08:59:48;;;;;;;10.02;6.65;;;11.00;99.90;;;;;;5053944;28;20209;-75
2021/10/13 09:02:17;;;;;;;14.45;6.22;;;10.80;99.90;;;;;;5053441;28;20684;-75
2021/10/13 09:05:04;;;;;;;12.65;6.95;;;10.50;99.90;;;;;;5053863;28;20628;-75
2021/10/13 09:07:31;;;;;;;13.82;7.20;;;10.30;99.90;;;;;;5053688;28;20554;-75
2021/10/13 09:09:57;;;;;;;9.57;5.88;;;10.30;99.90;;;;;;5053405;28;20206;-75
2021/10/13 09:12:32;;;;;;;10.13;6.03;;;10.40;99.90;;;;;;5053540;28;20207;-74
2021/10/13 09:15:08;;;;;;;13.50;7.50;;;10.50;99.90;;;;;;5053452;28;20258;-75
2021/10/13 09:17:55;;;;;;;12.43;6.35;;;10.40;99.90;;;;;;5053436;28;20229;-75
2021/10/13 09:20:25;;;;;;;9.55;5.60;;;10.60;99.90;;;;;;5053245;28;20293;-75
2021/10/13 09:23:04;;;;;;;8.60;4.63;;;10.80;99.90;;;;;;5053453;28;20231;-75
2021/10/13 09:25:31;;;;;;;7.18;4.13;;;10.90;99.90;;;;;;5053213;28;20211;-75
2021/10/13 09:27:58;;;;;;;6.07;3.95;;;10.90;99.90;;;;;;5053431;28;20226;-75
2021/10/13 09:30:28;;;;;;;5.40;3.75;;;11.10;99.90;;;;;;5053421;28;20211;-75
2021/10/13 09:32:54;;;;;;;6.70;3.97;;;11.30;99.90;;;;;;5053070;28;20203;-75
2021/10/13 09:35:29;;;;;;;6.30;3.50;;;11.40;99.90;;;;;;5053376;28;20314;-75
2021/10/13 09:37:56;;;;;;;4.15;2.90;;;11.10;99.90;;;;;;5053443;28;20306;-75
2021/10/13 09:40:28;;;;;;;5.78;2.72;;;11.10;99.90;;;;;;5053451;28;20257;-75
2021/10/13 09:42:58;;;;;;;3.75;2.78;;;11.10;99.90;;;;;;5052899;28;20210;-74
2021/10/13 09:45:26;;;;;;;3.80;2.42;;;11.20;99.90;;;;;;5054216;28;20566;-75
2021/10/13 09:47:59;;;;;;;1.60;1.30;;;11.60;99.90;;;;;;5053378;28;20220;-75
2021/10/13 09:50:40;;;;;;;1.30;0.85;;;11.80;99.90;;;;;;5053183;28;20207;-75
2021/10/13 09:53:18;;;;;;;0.60;0.60;;;12.00;99.90;;;;;;5053173;28;20203;-75
2021/10/13 09:55:45;;;;;;;0.73;0.63;;;12.10;99.90;;;;;;5052955;28;20693;-75
2021/10/13 09:58:25;;;;;;;1.58;0.90;;;12.30;99.90;;;;;;5053246;28;20234;-75
2021/10/13 10:01:08;;;;;;;5.45;1.67;;;12.40;99.90;;;;;;5053130;28;20294;-75
2021/10/13 10:03:36;;;;;;;3.63;1.85;;;12.30;99.90;;;;;;5053185;28;20211;-75
2021/10/13 10:06:05;;;;;;;2.85;1.40;;;12.40;99.90;;;;;;5053211;28;20207;-75
2021/10/13 10:08:59;;;;;;;1.90;1.65;;;12.50;99.90;;;;;;5052890;28;20768;-75
2021/10/13 10:11:31;;;;;;;3.92;2.03;;;12.60;99.90;;;;;;5052986;28;20326;-75
2021/10/13 10:13:58;;;;;;;3.58;1.83;;;12.50;99.90;;;;;;5053121;28;20200;-75
2021/10/13 10:16:29;;;;;;;1.83;1.60;;;12.50;99.90;;;;;;5052967;28;20230;-76
2021/10/13 10:19:17;;;;;;;3.75;2.40;;;12.70;99.90;;;;;;5053073;28;20227;-75
2021/10/13 10:21:53;;;;;;;5.55;2.47;;;12.90;99.90;;;;;;5052841;28;20207;-75
2021/10/13 10:24:28;;;;;;;4.13;3.20;;;13.00;99.90;;;;;;5052894;28;20217;-75
2021/10/13 10:27:20;;;;;;;4.85;3.63;;;13.00;99.90;;;;;;5052919;28;20203;-75
2021/10/13 10:29:47;;;;;;;6.25;4.25;;;12.60;99.90;;;;;;5052756;28;20630;-75
2021/10/13 10:32:19;;;;;;;5.35;3.80;;;12.40;99.90;;;;;;5055202;28;20294;-74
2021/10/13 10:35:09;;;;;;;6.80;4.32;;;12.40;99.90;;;;;;5056467;28;20708;-75
2021/10/13 10:37:42;;;;;;;4.10;3.60;;;12.50;99.90;;;;;;5056620;28;20281;-75
2021/10/13 10:40:21;;;;;;;6.85;4.00;;;12.80;99.90;;;;;;5056599;28;20207;-76
2021/10/13 10:42:55;;;;;;;6.63;4.68;;;12.90;99.90;;;;;;5056353;28;20616;-75
2021/10/13 10:45:23;;;;;;;5.45;3.80;;;12.80;99.90;;;;;;5056423;28;20286;-75
2021/10/13 10:47:52;;;;;;;3.70;3.30;;;12.80;99.90;;;;;;5056413;28;20219;-76
2021/10/13 10:50:38;;;;;;;6.25;3.53;;;12.60;99.90;;;;;;5056247;28;20214;-75
2021/10/13 10:53:15;;;;;;;6.53;3.80;;;12.50;99.90;;;;;;5056177;28;20238;-74
2021/10/13 10:55:44;;;;;;;6.60;3.80;;;12.40;99.90;;;;;;5056144;28;20223;-75
2021/10/13 10:58:20;;;;;;;5.40;4.53;;;12.40;99.90;;;;;;5056258;28;20230;-75
2021/10/13 11:00:57;;;;;;;11.88;5.97;;;12.10;99.90;;;;;;5056176;28;20238;-76
2021/10/13 11:03:26;;;;;;;7.80;5.30;;;11.90;99.90;;;;;;5056109;28;20209;-74
2021/10/13 11:05:54;;;;;;;10.43;6.75;;;11.90;99.90;;;;;;5055984;28;20677;-75
2021/10/13 11:08:23;;;;;;;10.63;6.00;;;12.10;99.90;;;;;;5056458;28;20592;-75
2021/10/13 11:10:50;;;;;;;12.35;7.78;;;12.10;99.90;;;;;;5055755;28;20203;-75
2021/10/13 11:13:24;;;;;;;10.40;6.63;;;12.10;99.90;;;;;;5055758;28;20295;-75
2021/10/13 11:15:51;;;;;;;8.70;6.15;;;12.20;99.90;;;;;;5055718;28;20762;-75
2021/10/13 11:18:18;;;;;;;8.10;6.32;;;12.20;99.90;;;;;;5055563;28;20314;-75
2021/10/13 11:20:46;;;;;;;8.45;5.40;;;12.40;99.90;;;;;;5055470;28;20207;-75
2021/10/13 11:23:13;;;;;;;6.38;4.90;;;12.40;99.90;;;;;;5055584;28;20294;-74
2021/10/13 11:25:41;;;;;;;6.32;5.28;;;12.70;99.90;;;;;;5055473;28;20208;-75
2021/10/13 11:28:10;;;;;;;6.82;4.63;;;12.60;99.90;;;;;;5055656;28;20234;-75
2021/10/13 11:30:39;;;;;;;5.18;4.03;;;13.00;99.90;;;;;;5055537;28;20627;-75
2021/10/13 11:33:06;;;;;;;5.88;4.57;;;13.40;99.90;;;;;;5055352;28;20203;-75
2021/10/13 11:35:33;;;;;;;6.50;4.60;;;13.50;99.90;;;;;;5055411;28;20318;-75
2021/10/13 11:38:00;;;;;;;5.28;3.72;;;13.30;99.90;;;;;;5055443;28;20220;-75
2021/10/13 11:40:28;;;;;;;4.88;4.03;;;13.20;99.90;;;;;;5055265;28;20685;-75
2021/10/13 11:42:58;;;;;;;4.32;3.30;;;12.90;99.90;;;;;;5054912;28;20207;-74
2021/10/13 11:45:26;;;;;;;6.55;4.47;;;12.70;99.90;;;;;;5055095;28;20205;-75
2021/10/13 11:47:53;;;;;;;6.35;4.78;;;12.40;99.90;;;;;;5055168;28;20223;-75
2021/10/13 11:50:21;;;;;;;4.22;3.67;;;12.30;99.90;;;;;;5054950;28;20295;-75
2021/10/13 11:52:55;;;;;;;6.70;4.10;;;12.20;99.90;;;;;;5055004;28;20587;-74
2021/10/13 11:55:25;;;;;;;3.55;3.25;;;12.10;99.90;;;;;;5055087;28;20551;-75
2021/10/13 11:57:55;;;;;;;5.18;3.00;;;11.90;99.90;;;;;;5054845;28;20269;-75
2021/10/13 12:00:24;;;;;;;3.00;2.40;;;11.90;99.90;;;;;;5055032;28;20203;-75
2021/10/13 12:03:03;;;;;;;3.25;2.65;;;12.00;99.90;;;;;;5054877;28;20203;-75
2021/10/13 12:05:33;;;;;;;2.38;2.20;;;12.30;99.90;;;;;;5054949;28;20202;-75
2021/10/13 12:08:09;;;;;;;2.28;1.85;;;12.90;99.90;;;;;;5054694;28;20289;-76
2021/10/13 12:10:38;;;;;;;4.45;2.22;;;13.70;99.90;;;;;;5054935;28;20264;-76
2021/10/13 12:13:07;;;;;;;1.60;1.45;;;14.60;99.90;;;;;;5054412;28;20220;-75
2021/10/13 12:15:35;;;;;;;1.20;0.95;;;15.00;98.70;;;;;;5054677;28;20226;-76
2021/10/13 12:18:09;;;;;;;1.20;1.00;;;15.10;96.80;;;;;;5054402;28;20315;-75
2021/10/13 12:20:36;;;;;;;0.98;0.98;;;15.10;96.30;;;;;;5054625;28;20208;-75
2021/10/13 12:23:11;;;;;;;0.80;0.80;;;14.30;94.90;;;;;;5054442;28;20210;-75
2021/10/13 12:25:38;;;;;;;0.90;0.77;;;13.90;96.80;;;;;;5054301;28;20216;-76
2021/10/13 12:28:14;;;;;;;0.70;0.70;;;14.10;96.20;;;;;;5054506;28;20228;-76
2021/10/13 12:30:43;;;;;;;1.05;0.80;;;14.00;96.70;;;;;;5054487;28;20201;-76
2021/10/13 12:33:15;;;;;;;1.00;0.90;;;14.00;96.80;;;;;;5054240;28;20291;-75
2021/10/13 12:35:42;;;;;;;1.25;1.15;;;14.10;97.90;;;;;;5054322;28;20228;-75
2021/10/13 12:38:14;;;;;;;1.63;1.17;;;14.00;98.80;;;;;;5054085;28;20227;-75
2021/10/13 12:40:59;;;;;;;1.00;0.90;;;13.30;98.20;;;;;;5054052;28;20295;-75
2021/10/13 12:43:25;;;;;;;0.80;0.75;;;12.80;99.90;;;;;;5054145;28;20298;-75
2021/10/13 12:45:54;;;;;;;1.10;0.80;;;12.40;99.90;;;;;;5054331;28;20200;-75
2021/10/13 12:48:22;;;;;;;1.17;0.80;;;12.10;99.90;;;;;;5054049;28;20225;-75
2021/10/13 12:51:09;;;;;;;1.20;0.80;;;11.60;99.90;;;;;;5053950;28;20666;-75
2021/10/13 12:53:37;;;;;;;0.90;0.90;;;11.60;99.90;;;;;;5053275;28;20294;-75
2021/10/13 12:56:04;;;;;;;1.23;0.77;;;11.70;99.90;;;;;;5053924;28;20224;-75
2021/10/13 12:58:31;;;;;;;0.85;0.85;;;11.90;99.90;;;;;;5053715;28;20605;-76
2021/10/13 13:01:00;;;;;;;1.15;1.05;;;12.20;99.90;;;;;;5053914;28;20593;-75